sensor_id;sensor_type;location;lat;lon;timestamp;pressure;altitude;pressure_sealevel;temperature;humidity
46534;BME280;32260;52.008;4.752;2023-03-13T00:01:12;100187.88;;;11.37;76.19
46534;BME280;32260;52.008;4.752;2023-03-13T00:03:38;100189.72;;;11.35;75.98
46534;BME280;32260;52.008;4.752;2023-03-13T00:06:05;100180.69;;;11.41;75.93
46534;BME280;32260;52.008;4.752;2023-03-13T00:08:31;100172.09;;;11.34;76.16
46534;BME280;32260;52.008;4.752;2023-03-13T00:11:01;100171.13;;;11.37;76.43
46534;BME280;32260;52.008;4.752;2023-03-13T00:13:27;100152.78;;;11.29;76.76
46534;BME280;32260;52.008;4.752;2023-03-13T00:18:38;100134.00;;;11.35;76.43
46534;BME280;32260;52.008;4.752;2023-03-13T00:21:06;100141.38;;;11.27;77.14
46534;BME280;32260;52.008;4.752;2023-03-13T00:23:34;100125.41;;;11.28;77.14
46534;BME280;32260;52.008;4.752;2023-03-13T00:26:03;100117.47;;;11.28;77.34
46534;BME280;32260;52.008;4.752;2023-03-13T00:28:31;100105.50;;;11.16;78.18
46534;BME280;32260;52.008;4.752;2023-03-13T00:33:44;100090.13;;;11.26;78.49
46534;BME280;32260;52.008;4.752;2023-03-13T00:36:14;100076.84;;;11.26;78.54
46534;BME280;32260;52.008;4.752;2023-03-13T00:38:41;100079.00;;;11.16;78.72
46534;BME280;32260;52.008;4.752;2023-03-13T00:41:10;100081.38;;;11.24;78.40
46534;BME280;32260;52.008;4.752;2023-03-13T00:43:38;100071.88;;;11.17;79.17
46534;BME280;32260;52.008;4.752;2023-03-13T00:46:04;100066.31;;;11.25;79.41
46534;BME280;32260;52.008;4.752;2023-03-13T00:48:31;100055.56;;;11.29;79.21
46534;BME280;32260;52.008;4.752;2023-03-13T00:50:59;100041.16;;;11.37;79.46
46534;BME280;32260;52.008;4.752;2023-03-13T00:53:26;100035.78;;;11.38;78.48
46534;BME280;32260;52.008;4.752;2023-03-13T00:58:29;100031.19;;;11.43;79.54
46534;BME280;32260;52.008;4.752;2023-03-13T01:00:56;100016.31;;;11.39;78.99
46534;BME280;32260;52.008;4.752;2023-03-13T01:03:30;100020.63;;;11.42;79.44
46534;BME280;32260;52.008;4.752;2023-03-13T01:05:58;100007.22;;;11.46;79.82
46534;BME280;32260;52.008;4.752;2023-03-13T01:08:25;100012.44;;;11.48;79.59
46534;BME280;32260;52.008;4.752;2023-03-13T01:10:59;100006.69;;;11.60;79.37
46534;BME280;32260;52.008;4.752;2023-03-13T01:13:26;99995.16;;;11.61;79.37
46534;BME280;32260;52.008;4.752;2023-03-13T01:15:52;99992.75;;;11.54;80.28
46534;BME280;32260;52.008;4.752;2023-03-13T01:18:18;99975.75;;;11.59;80.04
46534;BME280;32260;52.008;4.752;2023-03-13T01:20:44;99974.66;;;11.65;80.13
46534;BME280;32260;52.008;4.752;2023-03-13T01:23:11;99971.22;;;11.63;80.35
46534;BME280;32260;52.008;4.752;2023-03-13T01:25:37;99969.16;;;11.70;80.70
46534;BME280;32260;52.008;4.752;2023-03-13T01:28:04;99964.69;;;11.72;79.76
46534;BME280;32260;52.008;4.752;2023-03-13T01:30:31;99961.63;;;11.82;79.47
46534;BME280;32260;52.008;4.752;2023-03-13T01:32:57;99952.59;;;11.87;79.34
46534;BME280;32260;52.008;4.752;2023-03-13T01:35:23;99945.72;;;11.81;80.00
46534;BME280;32260;52.008;4.752;2023-03-13T01:37:49;99944.69;;;11.85;80.08
46534;BME280;32260;52.008;4.752;2023-03-13T01:40:15;99957.91;;;11.87;79.65
46534;BME280;32260;52.008;4.752;2023-03-13T01:42:50;99939.94;;;11.93;79.60
46534;BME280;32260;52.008;4.752;2023-03-13T01:46:37;99935.28;;;12.00;80.59
46534;BME280;32260;52.008;4.752;2023-03-13T01:48:29;99923.09;;;11.94;80.11
46534;BME280;32260;52.008;4.752;2023-03-13T01:50:59;99914.09;;;11.98;80.74
46534;BME280;32260;52.008;4.752;2023-03-13T01:53:27;99908.75;;;12.00;80.26
46534;BME280;32260;52.008;4.752;2023-03-13T01:55:55;99898.06;;;12.02;80.24
46534;BME280;32260;52.008;4.752;2023-03-13T01:58:22;99898.53;;;12.11;80.78
46534;BME280;32260;52.008;4.752;2023-03-13T02:00:48;99893.22;;;12.11;80.70
46534;BME280;32260;52.008;4.752;2023-03-13T02:03:17;99890.75;;;12.07;80.48
46534;BME280;32260;52.008;4.752;2023-03-13T02:05:46;99872.59;;;12.18;80.04
46534;BME280;32260;52.008;4.752;2023-03-13T02:08:18;99866.41;;;12.18;80.83
46534;BME280;32260;52.008;4.752;2023-03-13T02:10:55;99863.53;;;12.22;80.38
46534;BME280;32260;52.008;4.752;2023-03-13T02:13:24;99852.94;;;12.22;80.69
46534;BME280;32260;52.008;4.752;2023-03-13T02:15:50;99871.50;;;12.22;80.50
46534;BME280;32260;52.008;4.752;2023-03-13T02:18:17;99843.97;;;12.25;80.85
46534;BME280;32260;52.008;4.752;2023-03-13T02:20:43;99847.34;;;12.28;80.74
46534;BME280;32260;52.008;4.752;2023-03-13T02:25:56;99847.97;;;12.35;80.59
46534;BME280;32260;52.008;4.752;2023-03-13T02:28:28;99839.44;;;12.27;81.20
46534;BME280;32260;52.008;4.752;2023-03-13T02:30:58;99838.06;;;12.39;80.74
46534;BME280;32260;52.008;4.752;2023-03-13T02:33:29;99822.72;;;12.45;80.76
46534;BME280;32260;52.008;4.752;2023-03-13T02:35:58;99821.72;;;12.48;80.62
46534;BME280;32260;52.008;4.752;2023-03-13T02:38:28;99840.13;;;12.53;80.53
46534;BME280;32260;52.008;4.752;2023-03-13T02:40:55;99842.69;;;12.54;80.63
46534;BME280;32260;52.008;4.752;2023-03-13T02:46:11;99845.75;;;12.66;80.95
46534;BME280;32260;52.008;4.752;2023-03-13T02:48:41;99836.72;;;12.70;80.90
46534;BME280;32260;52.008;4.752;2023-03-13T02:51:43;99825.94;;;12.73;80.97
46534;BME280;32260;52.008;4.752;2023-03-13T02:54:02;99832.81;;;12.77;80.40
46534;BME280;32260;52.008;4.752;2023-03-13T02:56:33;99831.97;;;12.76;80.84
46534;BME280;32260;52.008;4.752;2023-03-13T02:59:01;99825.66;;;12.79;80.49
46534;BME280;32260;52.008;4.752;2023-03-13T03:01:27;99845.63;;;12.88;80.26
46534;BME280;32260;52.008;4.752;2023-03-13T03:03:53;99839.41;;;12.89;79.82
46534;BME280;32260;52.008;4.752;2023-03-13T03:06:19;99826.38;;;12.83;80.63
46534;BME280;32260;52.008;4.752;2023-03-13T03:08:46;99820.72;;;12.90;80.16
46534;BME280;32260;52.008;4.752;2023-03-13T03:11:12;99818.41;;;12.83;80.51
46534;BME280;32260;52.008;4.752;2023-03-13T03:13:38;99802.25;;;12.87;80.39
46534;BME280;32260;52.008;4.752;2023-03-13T03:16:06;99806.50;;;12.91;80.00
46534;BME280;32260;52.008;4.752;2023-03-13T03:18:34;99816.47;;;12.86;80.17
46534;BME280;32260;52.008;4.752;2023-03-13T03:21:00;99817.47;;;13.03;80.09
46534;BME280;32260;52.008;4.752;2023-03-13T03:23:26;99800.72;;;13.01;79.97
46534;BME280;32260;52.008;4.752;2023-03-13T03:25:52;99799.06;;;12.98;79.93
46534;BME280;32260;52.008;4.752;2023-03-13T03:28:18;99808.69;;;13.01;79.62
46534;BME280;32260;52.008;4.752;2023-03-13T03:30:44;99807.84;;;13.00;79.96
46534;BME280;32260;52.008;4.752;2023-03-13T03:33:11;99800.53;;;13.05;79.95
46534;BME280;32260;52.008;4.752;2023-03-13T03:35:37;99810.94;;;13.10;79.39
46534;BME280;32260;52.008;4.752;2023-03-13T03:38:05;99805.00;;;13.05;79.67
46534;BME280;32260;52.008;4.752;2023-03-13T03:40:31;99799.22;;;13.14;79.64
46534;BME280;32260;52.008;4.752;2023-03-13T03:42:58;99801.97;;;13.13;79.57
46534;BME280;32260;52.008;4.752;2023-03-13T03:45:24;99789.03;;;13.05;80.25
46534;BME280;32260;52.008;4.752;2023-03-13T03:47:50;99795.91;;;13.09;80.27
46534;BME280;32260;52.008;4.752;2023-03-13T03:50:16;99769.03;;;13.15;79.80
46534;BME280;32260;52.008;4.752;2023-03-13T03:52:42;99763.56;;;13.18;79.90
46534;BME280;32260;52.008;4.752;2023-03-13T03:55:09;99787.78;;;13.12;79.98
46534;BME280;32260;52.008;4.752;2023-03-13T03:57:35;99779.50;;;13.18;80.18
46534;BME280;32260;52.008;4.752;2023-03-13T04:00:01;99787.78;;;13.12;80.31
46534;BME280;32260;52.008;4.752;2023-03-13T04:02:28;99777.94;;;13.14;80.44
46534;BME280;32260;52.008;4.752;2023-03-13T04:04:54;99782.25;;;13.17;80.13
46534;BME280;32260;52.008;4.752;2023-03-13T04:07:20;99758.81;;;13.25;80.28
46534;BME280;32260;52.008;4.752;2023-03-13T04:09:46;99761.41;;;13.26;79.61
46534;BME280;32260;52.008;4.752;2023-03-13T04:12:15;99766.00;;;13.23;80.44
46534;BME280;32260;52.008;4.752;2023-03-13T04:14:41;99752.63;;;13.24;80.56
46534;BME280;32260;52.008;4.752;2023-03-13T04:17:07;99780.59;;;13.14;80.82
46534;BME280;32260;52.008;4.752;2023-03-13T04:19:33;99749.19;;;13.22;80.62
46534;BME280;32260;52.008;4.752;2023-03-13T04:21:59;99749.81;;;13.27;80.33
46534;BME280;32260;52.008;4.752;2023-03-13T04:24:25;99759.25;;;13.35;80.00
46534;BME280;32260;52.008;4.752;2023-03-13T04:26:51;99747.16;;;13.27;80.74
46534;BME280;32260;52.008;4.752;2023-03-13T04:29:18;99732.94;;;13.29;80.58
46534;BME280;32260;52.008;4.752;2023-03-13T04:31:44;99738.25;;;13.29;80.38
46534;BME280;32260;52.008;4.752;2023-03-13T04:34:10;99744.34;;;13.31;80.40
46534;BME280;32260;52.008;4.752;2023-03-13T04:36:36;99744.41;;;13.29;80.20
46534;BME280;32260;52.008;4.752;2023-03-13T04:39:02;99737.06;;;13.34;80.69
46534;BME280;32260;52.008;4.752;2023-03-13T04:41:29;99728.75;;;13.42;79.80
46534;BME280;32260;52.008;4.752;2023-03-13T04:43:55;99744.13;;;13.35;79.96
46534;BME280;32260;52.008;4.752;2023-03-13T04:46:21;99736.22;;;13.34;80.13
46534;BME280;32260;52.008;4.752;2023-03-13T04:48:50;99743.72;;;13.45;79.58
46534;BME280;32260;52.008;4.752;2023-03-13T04:51:16;99730.63;;;13.40;79.59
46534;BME280;32260;52.008;4.752;2023-03-13T04:53:42;99732.50;;;13.38;79.72
46534;BME280;32260;52.008;4.752;2023-03-13T04:56:10;99724.53;;;13.38;79.74
46534;BME280;32260;52.008;4.752;2023-03-13T04:58:36;99706.22;;;13.49;78.93
46534;BME280;32260;52.008;4.752;2023-03-13T05:01:03;99724.22;;;13.44;79.08
46534;BME280;32260;52.008;4.752;2023-03-13T05:03:29;99702.13;;;13.42;78.92
46534;BME280;32260;52.008;4.752;2023-03-13T05:05:55;99708.34;;;13.42;78.74
46534;BME280;32260;52.008;4.752;2023-03-13T05:08:21;99703.41;;;13.52;78.19
46534;BME280;32260;52.008;4.752;2023-03-13T05:10:47;99697.69;;;13.42;78.21
46534;BME280;32260;52.008;4.752;2023-03-13T05:13:13;99712.16;;;13.54;77.79
46534;BME280;32260;52.008;4.752;2023-03-13T05:15:39;99682.75;;;13.57;77.18
46534;BME280;32260;52.008;4.752;2023-03-13T05:18:05;99683.84;;;13.53;77.32
46534;BME280;32260;52.008;4.752;2023-03-13T05:20:31;99686.19;;;13.59;77.20
46534;BME280;32260;52.008;4.752;2023-03-13T05:22:57;99668.66;;;13.55;77.19
46534;BME280;32260;52.008;4.752;2023-03-13T05:25:23;99672.72;;;13.63;76.49
46534;BME280;32260;52.008;4.752;2023-03-13T05:27:49;99679.59;;;13.49;75.97
46534;BME280;32260;52.008;4.752;2023-03-13T05:30:16;99665.59;;;13.81;75.33
46534;BME280;32260;52.008;4.752;2023-03-13T05:32:42;99659.72;;;13.74;74.58
46534;BME280;32260;52.008;4.752;2023-03-13T05:35:08;99665.03;;;13.74;74.32
46534;BME280;32260;52.008;4.752;2023-03-13T05:37:34;99669.34;;;13.77;74.51
46534;BME280;32260;52.008;4.752;2023-03-13T05:40:00;99657.53;;;13.65;74.17
46534;BME280;32260;52.008;4.752;2023-03-13T05:42:26;99663.63;;;13.67;73.40
46534;BME280;32260;52.008;4.752;2023-03-13T05:44:52;99650.56;;;13.80;73.54
46534;BME280;32260;52.008;4.752;2023-03-13T05:47:18;99657.97;;;13.73;72.88
46534;BME280;32260;52.008;4.752;2023-03-13T05:49:44;99642.56;;;13.80;72.99
46534;BME280;32260;52.008;4.752;2023-03-13T05:52:10;99629.16;;;13.81;72.89
46534;BME280;32260;52.008;4.752;2023-03-13T05:54:36;99633.47;;;13.84;72.24
46534;BME280;32260;52.008;4.752;2023-03-13T05:57:03;99655.19;;;13.76;72.38
46534;BME280;32260;52.008;4.752;2023-03-13T05:59:29;99633.94;;;13.92;72.02
46534;BME280;32260;52.008;4.752;2023-03-13T06:01:55;99649.84;;;13.76;72.18
46534;BME280;32260;52.008;4.752;2023-03-13T06:04:21;99658.06;;;13.89;71.97
46534;BME280;32260;52.008;4.752;2023-03-13T06:06:47;99649.63;;;13.81;72.39
46534;BME280;32260;52.008;4.752;2023-03-13T06:09:14;99631.41;;;13.89;72.04
46534;BME280;32260;52.008;4.752;2023-03-13T06:11:40;99647.16;;;13.94;71.93
46534;BME280;32260;52.008;4.752;2023-03-13T06:14:06;99659.06;;;13.86;71.64
46534;BME280;32260;52.008;4.752;2023-03-13T06:16:32;99632.81;;;13.96;71.40
46534;BME280;32260;52.008;4.752;2023-03-13T06:18:59;99653.94;;;13.83;71.74
46534;BME280;32260;52.008;4.752;2023-03-13T06:21:25;99641.94;;;13.92;71.97
46534;BME280;32260;52.008;4.752;2023-03-13T06:23:51;99653.59;;;13.89;71.94
46534;BME280;32260;52.008;4.752;2023-03-13T06:26:17;99639.19;;;13.94;71.81
46534;BME280;32260;52.008;4.752;2023-03-13T06:28:43;99653.75;;;13.86;72.60
46534;BME280;32260;52.008;4.752;2023-03-13T06:31:09;99660.41;;;13.78;73.35
46534;BME280;32260;52.008;4.752;2023-03-13T06:33:36;99654.94;;;13.81;73.32
46534;BME280;32260;52.008;4.752;2023-03-13T06:36:03;99664.72;;;13.80;73.72
46534;BME280;32260;52.008;4.752;2023-03-13T06:38:30;99661.53;;;13.73;74.40
46534;BME280;32260;52.008;4.752;2023-03-13T06:40:57;99672.22;;;13.72;74.38
46534;BME280;32260;52.008;4.752;2023-03-13T06:43:23;99657.84;;;13.76;74.33
46534;BME280;32260;52.008;4.752;2023-03-13T06:45:49;99678.44;;;13.55;76.15
46534;BME280;32260;52.008;4.752;2023-03-13T06:48:16;99666.16;;;13.52;76.20
46534;BME280;32260;52.008;4.752;2023-03-13T06:50:42;99675.53;;;13.42;76.83
46534;BME280;32260;52.008;4.752;2023-03-13T06:53:25;99659.09;;;13.51;76.99
46534;BME280;32260;52.008;4.752;2023-03-13T06:55:51;99656.25;;;13.37;77.76
46534;BME280;32260;52.008;4.752;2023-03-13T06:58:17;99656.56;;;13.31;77.80
46534;BME280;32260;52.008;4.752;2023-03-13T07:00:46;99670.66;;;13.33;77.93
46534;BME280;32260;52.008;4.752;2023-03-13T07:03:12;99659.06;;;13.34;77.83
46534;BME280;32260;52.008;4.752;2023-03-13T07:05:39;99651.41;;;13.27;78.68
46534;BME280;32260;52.008;4.752;2023-03-13T07:08:05;99641.63;;;13.28;78.26
46534;BME280;32260;52.008;4.752;2023-03-13T07:10:31;99648.13;;;13.22;78.92
46534;BME280;32260;52.008;4.752;2023-03-13T07:12:57;99655.00;;;13.26;78.34
46534;BME280;32260;52.008;4.752;2023-03-13T07:15:23;99639.75;;;13.30;78.97
46534;BME280;32260;52.008;4.752;2023-03-13T07:17:49;99656.94;;;13.23;78.79
46534;BME280;32260;52.008;4.752;2023-03-13T07:20:16;99648.13;;;13.22;78.94
46534;BME280;32260;52.008;4.752;2023-03-13T07:22:42;99649.28;;;13.17;79.19
46534;BME280;32260;52.008;4.752;2023-03-13T07:25:08;99680.34;;;13.16;79.13
46534;BME280;32260;52.008;4.752;2023-03-13T07:27:34;99656.88;;;13.24;78.33
46534;BME280;32260;52.008;4.752;2023-03-13T07:30:01;99650.38;;;13.13;79.84
46534;BME280;32260;52.008;4.752;2023-03-13T07:32:30;99671.94;;;13.06;79.96
46534;BME280;32260;52.008;4.752;2023-03-13T07:34:57;99684.78;;;13.16;79.24
46534;BME280;32260;52.008;4.752;2023-03-13T07:37:23;99671.56;;;13.14;79.83
46534;BME280;32260;52.008;4.752;2023-03-13T07:39:49;99691.13;;;13.13;79.93
46534;BME280;32260;52.008;4.752;2023-03-13T07:42:16;99666.75;;;13.22;79.54
46534;BME280;32260;52.008;4.752;2023-03-13T07:44:42;99658.69;;;13.24;78.99
46534;BME280;32260;52.008;4.752;2023-03-13T07:47:08;99678.84;;;13.28;79.14
46534;BME280;32260;52.008;4.752;2023-03-13T07:49:34;99662.84;;;13.30;79.31
46534;BME280;32260;52.008;4.752;2023-03-13T07:52:06;99672.50;;;13.31;79.21
46534;BME280;32260;52.008;4.752;2023-03-13T07:54:32;99656.41;;;13.34;78.88
46534;BME280;32260;52.008;4.752;2023-03-13T07:56:58;99655.81;;;13.46;78.53
46534;BME280;32260;52.008;4.752;2023-03-13T07:59:24;99635.16;;;13.51;77.88
46534;BME280;32260;52.008;4.752;2023-03-13T08:01:50;99643.91;;;13.71;77.48
46534;BME280;32260;52.008;4.752;2023-03-13T08:04:16;99644.56;;;13.58;77.92
46534;BME280;32260;52.008;4.752;2023-03-13T08:06:43;99652.59;;;13.57;78.20
46534;BME280;32260;52.008;4.752;2023-03-13T08:09:09;99650.59;;;13.62;77.90
46534;BME280;32260;52.008;4.752;2023-03-13T08:11:36;99652.75;;;13.71;77.96
46534;BME280;32260;52.008;4.752;2023-03-13T08:14:03;99643.31;;;13.66;78.23
46534;BME280;32260;52.008;4.752;2023-03-13T08:16:32;99632.72;;;13.64;78.24
46534;BME280;32260;52.008;4.752;2023-03-13T08:18:59;99638.88;;;13.82;77.22
46534;BME280;32260;52.008;4.752;2023-03-13T08:21:28;99642.56;;;13.80;77.13
46534;BME280;32260;52.008;4.752;2023-03-13T08:23:57;99630.72;;;13.85;77.28
46534;BME280;32260;52.008;4.752;2023-03-13T08:26:25;99609.75;;;13.79;77.06
46534;BME280;32260;52.008;4.752;2023-03-13T08:28:54;99628.16;;;13.84;76.83
46534;BME280;32260;52.008;4.752;2023-03-13T08:31:26;99635.91;;;13.88;76.60
46534;BME280;32260;52.008;4.752;2023-03-13T08:33:52;99629.63;;;13.89;76.20
46534;BME280;32260;52.008;4.752;2023-03-13T08:36:22;99642.31;;;13.84;76.51
46534;BME280;32260;52.008;4.752;2023-03-13T08:38:51;99615.34;;;13.74;76.80
46534;BME280;32260;52.008;4.752;2023-03-13T08:41:19;99633.72;;;13.79;76.48
46534;BME280;32260;52.008;4.752;2023-03-13T08:43:46;99627.78;;;13.74;76.65
46534;BME280;32260;52.008;4.752;2023-03-13T08:46:13;99650.78;;;13.75;76.62
46534;BME280;32260;52.008;4.752;2023-03-13T08:48:39;99624.47;;;13.86;76.52
46534;BME280;32260;52.008;4.752;2023-03-13T08:51:09;99604.78;;;13.89;76.06
46534;BME280;32260;52.008;4.752;2023-03-13T08:53:37;99626.97;;;13.89;75.78
46534;BME280;32260;52.008;4.752;2023-03-13T08:56:04;99614.69;;;14.03;75.90
46534;BME280;32260;52.008;4.752;2023-03-13T08:58:31;99599.00;;;14.14;75.28
46534;BME280;32260;52.008;4.752;2023-03-13T09:01:02;99587.50;;;14.30;74.28
46534;BME280;32260;52.008;4.752;2023-03-13T09:03:29;99589.03;;;14.34;74.23
46534;BME280;32260;52.008;4.752;2023-03-13T09:05:57;99573.56;;;14.56;73.62
46534;BME280;32260;52.008;4.752;2023-03-13T09:08:24;99567.75;;;14.66;72.48
46534;BME280;32260;52.008;4.752;2023-03-13T09:10:59;99576.81;;;14.94;71.08
46534;BME280;32260;52.008;4.752;2023-03-13T09:13:27;99591.81;;;15.11;70.48
46534;BME280;32260;52.008;4.752;2023-03-13T09:15:55;99565.47;;;15.20;69.45
46534;BME280;32260;52.008;4.752;2023-03-13T09:18:22;99568.34;;;15.46;68.40
46534;BME280;32260;52.008;4.752;2023-03-13T09:20:48;99588.00;;;15.45;67.89
46534;BME280;32260;52.008;4.752;2023-03-13T09:23:14;99563.88;;;15.47;67.26
46534;BME280;32260;52.008;4.752;2023-03-13T09:25:40;99582.78;;;15.58;66.82
46534;BME280;32260;52.008;4.752;2023-03-13T09:28:06;99547.41;;;15.55;65.97
46534;BME280;32260;52.008;4.752;2023-03-13T09:30:32;99558.84;;;15.57;65.36
46534;BME280;32260;52.008;4.752;2023-03-13T09:32:58;99530.34;;;15.72;65.57
46534;BME280;32260;52.008;4.752;2023-03-13T09:35:27;99543.03;;;15.82;65.57
46534;BME280;32260;52.008;4.752;2023-03-13T09:37:53;99538.25;;;15.73;65.13
46534;BME280;32260;52.008;4.752;2023-03-13T09:40:21;99545.53;;;15.85;65.25
46534;BME280;32260;52.008;4.752;2023-03-13T09:42:56;99533.91;;;15.87;64.49
46534;BME280;32260;52.008;4.752;2023-03-13T09:45:38;99534.41;;;15.77;64.15
46534;BME280;32260;52.008;4.752;2023-03-13T09:48:27;99515.94;;;15.89;64.49
46534;BME280;32260;52.008;4.752;2023-03-13T09:53:55;99493.50;;;15.91;63.95
46534;BME280;32260;52.008;4.752;2023-03-13T09:56:36;99502.78;;;16.00;63.58
46534;BME280;32260;52.008;4.752;2023-03-13T09:59:12;99489.09;;;16.05;63.41
46534;BME280;32260;52.008;4.752;2023-03-13T10:01:41;99494.28;;;15.93;62.88
46534;BME280;32260;52.008;4.752;2023-03-13T10:04:37;99501.41;;;16.07;62.98
46534;BME280;32260;52.008;4.752;2023-03-13T10:07:10;99493.22;;;15.96;62.99
46534;BME280;32260;52.008;4.752;2023-03-13T10:09:36;99499.44;;;15.96;63.11
46534;BME280;32260;52.008;4.752;2023-03-13T10:12:15;99502.00;;;15.98;62.75
46534;BME280;32260;52.008;4.752;2023-03-13T10:16:03;99483.09;;;16.01;62.72
46534;BME280;32260;52.008;4.752;2023-03-13T10:17:49;99482.69;;;16.07;62.38
46534;BME280;32260;52.008;4.752;2023-03-13T10:23:20;99519.59;;;16.29;62.31
46534;BME280;32260;52.008;4.752;2023-03-13T10:25:47;99485.88;;;16.41;61.79
46534;BME280;32260;52.008;4.752;2023-03-13T10:28:15;99485.25;;;16.50;60.89
46534;BME280;32260;52.008;4.752;2023-03-13T10:30:47;99513.47;;;16.55;60.73
46534;BME280;32260;52.008;4.752;2023-03-13T10:36:11;99490.13;;;16.84;59.63
46534;BME280;32260;52.008;4.752;2023-03-13T10:38:47;99511.44;;;16.86;57.87
46534;BME280;32260;52.008;4.752;2023-03-13T10:41:32;99491.75;;;16.87;57.00
46534;BME280;32260;52.008;4.752;2023-03-13T10:44:03;99472.63;;;16.93;56.31
46534;BME280;32260;52.008;4.752;2023-03-13T10:46:38;99471.44;;;16.97;55.32
46534;BME280;32260;52.008;4.752;2023-03-13T10:49:14;99494.41;;;16.87;54.63
46534;BME280;32260;52.008;4.752;2023-03-13T10:51:48;99466.09;;;16.97;54.85
46534;BME280;32260;52.008;4.752;2023-03-13T10:57:20;99457.56;;;17.18;54.67
46534;BME280;32260;52.008;4.752;2023-03-13T10:59:52;99475.53;;;17.16;54.46
46534;BME280;32260;52.008;4.752;2023-03-13T11:04:56;99467.41;;;17.30;53.41
46534;BME280;32260;52.008;4.752;2023-03-13T11:12:55;99462.22;;;17.66;52.07
46534;BME280;32260;52.008;4.752;2023-03-13T11:15:41;99454.28;;;17.64;50.80
46534;BME280;32260;52.008;4.752;2023-03-13T11:20:52;99442.88;;;17.86;49.79
46534;BME280;32260;52.008;4.752;2023-03-13T11:29:08;99466.44;;;17.44;50.89
46534;BME280;32260;52.008;4.752;2023-03-13T11:31:41;99475.84;;;17.37;50.90
46534;BME280;32260;52.008;4.752;2023-03-13T11:42:59;99484.66;;;17.39;50.12
46534;BME280;32260;52.008;4.752;2023-03-13T11:51:00;99444.06;;;17.32;49.62
46534;BME280;32260;52.008;4.752;2023-03-13T11:56:26;99480.91;;;17.41;49.25
46534;BME280;32260;52.008;4.752;2023-03-13T12:02:01;99447.03;;;17.66;48.65
46534;BME280;32260;52.008;4.752;2023-03-13T12:04:38;99432.88;;;17.64;49.07
46534;BME280;32260;52.008;4.752;2023-03-13T12:07:29;99433.59;;;17.79;49.32
46534;BME280;32260;52.008;4.752;2023-03-13T12:18:19;99406.56;;;17.95;46.77
46534;BME280;32260;52.008;4.752;2023-03-13T12:24:03;99443.38;;;18.04;45.24
46534;BME280;32260;52.008;4.752;2023-03-13T12:35:32;99406.88;;;18.39;44.43
46534;BME280;32260;52.008;4.752;2023-03-13T12:41:09;99396.59;;;18.57;45.30
46534;BME280;32260;52.008;4.752;2023-03-13T12:43:25;99391.31;;;18.55;44.92
46534;BME280;32260;52.008;4.752;2023-03-13T12:46:11;99405.28;;;18.36;44.67
46534;BME280;32260;52.008;4.752;2023-03-13T12:48:57;99385.25;;;18.29;45.05
46534;BME280;32260;52.008;4.752;2023-03-13T12:51:47;99443.56;;;18.38;45.20
46534;BME280;32260;52.008;4.752;2023-03-13T12:58:37;99386.81;;;18.56;45.02
46534;BME280;32260;52.008;4.752;2023-03-13T13:00:02;99384.19;;;18.79;45.24
46534;BME280;32260;52.008;4.752;2023-03-13T13:02:32;99374.81;;;18.84;45.30
46534;BME280;32260;52.008;4.752;2023-03-13T13:05:00;99385.84;;;18.57;45.84
46534;BME280;32260;52.008;4.752;2023-03-13T13:07:29;99391.34;;;18.20;45.77
46534;BME280;32260;52.008;4.752;2023-03-13T13:10:18;99427.72;;;18.11;45.44
46534;BME280;32260;52.008;4.752;2023-03-13T13:12:47;99376.88;;;17.98;45.09
46534;BME280;32260;52.008;4.752;2023-03-13T13:15:33;99389.00;;;18.15;44.32
46534;BME280;32260;52.008;4.752;2023-03-13T13:20:48;99421.16;;;18.15;43.66
46534;BME280;32260;52.008;4.752;2023-03-13T13:23:36;99377.69;;;18.23;44.34
46534;BME280;32260;52.008;4.752;2023-03-13T13:32:40;99372.75;;;18.41;43.59
46534;BME280;32260;52.008;4.752;2023-03-13T13:37:46;99383.31;;;17.83;44.38
46534;BME280;32260;52.008;4.752;2023-03-13T13:42:59;99361.25;;;17.79;44.42
46534;BME280;32260;52.008;4.752;2023-03-13T13:45:55;99366.09;;;17.74;44.75
46534;BME280;32260;52.008;4.752;2023-03-13T13:48:26;99367.31;;;17.57;45.20
46534;BME280;32260;52.008;4.752;2023-03-13T13:56:38;99338.84;;;17.56;44.86
46534;BME280;32260;52.008;4.752;2023-03-13T14:07:47;99334.72;;;17.39;44.84
46534;BME280;32260;52.008;4.752;2023-03-13T14:10:51;99330.97;;;17.41;45.55
46534;BME280;32260;52.008;4.752;2023-03-13T14:13:14;99325.78;;;17.51;45.41
46534;BME280;32260;52.008;4.752;2023-03-13T14:15:43;99332.41;;;17.58;44.48
46534;BME280;32260;52.008;4.752;2023-03-13T14:18:22;99314.84;;;17.54;45.22
46534;BME280;32260;52.008;4.752;2023-03-13T14:21:01;99306.47;;;17.59;45.17
46534;BME280;32260;52.008;4.752;2023-03-13T14:26:22;99309.84;;;17.74;45.42
46534;BME280;32260;52.008;4.752;2023-03-13T14:28:51;99314.00;;;17.54;45.10
46534;BME280;32260;52.008;4.752;2023-03-13T14:31:31;99303.47;;;17.63;45.18
46534;BME280;32260;52.008;4.752;2023-03-13T14:34:00;99306.72;;;17.56;45.56
46534;BME280;32260;52.008;4.752;2023-03-13T14:36:26;99303.84;;;17.70;45.45
46534;BME280;32260;52.008;4.752;2023-03-13T14:39:00;99302.59;;;17.63;45.47
46534;BME280;32260;52.008;4.752;2023-03-13T14:41:35;99311.78;;;17.72;46.21
46534;BME280;32260;52.008;4.752;2023-03-13T14:44:04;99290.72;;;17.67;45.92
46534;BME280;32260;52.008;4.752;2023-03-13T14:46:34;99298.47;;;17.83;45.44
46534;BME280;32260;52.008;4.752;2023-03-13T14:49:21;99286.56;;;17.74;45.73
46534;BME280;32260;52.008;4.752;2023-03-13T14:51:59;99309.63;;;17.77;45.70
46534;BME280;32260;52.008;4.752;2023-03-13T14:54:31;99296.53;;;17.61;45.02
46534;BME280;32260;52.008;4.752;2023-03-13T14:57:13;99288.13;;;17.90;45.03
46534;BME280;32260;52.008;4.752;2023-03-13T14:59:41;99290.50;;;17.82;44.82
46534;BME280;32260;52.008;4.752;2023-03-13T15:02:28;99295.50;;;17.75;44.44
46534;BME280;32260;52.008;4.752;2023-03-13T15:05:05;99297.38;;;17.86;44.15
46534;BME280;32260;52.008;4.752;2023-03-13T15:07:39;99291.88;;;17.63;43.90
46534;BME280;32260;52.008;4.752;2023-03-13T15:10:24;99292.69;;;17.76;43.93
46534;BME280;32260;52.008;4.752;2023-03-13T15:12:51;99298.94;;;17.64;44.20